sensor_id;sensor_type;location;lat;lon;timestamp;pressure;altitude;pressure_sealevel;temperature;humidity
84049;BME280;74136;51.684;7.862;2023-11-19T00:01:00;100268.97;;;8.91;89.16
84049;BME280;74136;51.684;7.862;2023-11-19T00:03:26;100271.28;;;8.94;89.36
84049;BME280;74136;51.684;7.862;2023-11-19T00:05:51;100265.28;;;8.97;88.92
84049;BME280;74136;51.684;7.862;2023-11-19T00:08:17;100268.41;;;9.00;89.52
84049;BME280;74136;51.684;7.862;2023-11-19T00:10:42;100260.78;;;9.02;89.03
84049;BME280;74136;51.684;7.862;2023-11-19T00:13:07;100244.44;;;9.07;89.17
84049;BME280;74136;51.684;7.862;2023-11-19T00:15:33;100257.47;;;9.12;89.37
84049;BME280;74136;51.684;7.862;2023-11-19T00:17:58;100263.44;;;9.21;89.67
84049;BME280;74136;51.684;7.862;2023-11-19T00:20:24;100268.69;;;9.22;89.42
84049;BME280;74136;51.684;7.862;2023-11-19T00:22:49;100266.34;;;9.26;89.51
84049;BME280;74136;51.684;7.862;2023-11-19T00:25:20;100264.31;;;9.33;89.45
84049;BME280;74136;51.684;7.862;2023-11-19T00:27:47;100271.00;;;9.37;89.79
84049;BME280;74136;51.684;7.862;2023-11-19T00:30:13;100266.09;;;9.39;89.35
84049;BME280;74136;51.684;7.862;2023-11-19T00:32:39;100271.34;;;9.40;89.30
84049;BME280;74136;51.684;7.862;2023-11-19T00:35:05;100281.88;;;9.43;89.14
84049;BME280;74136;51.684;7.862;2023-11-19T00:37:32;100263.47;;;9.44;89.61
84049;BME280;74136;51.684;7.862;2023-11-19T00:39:57;100264.09;;;9.46;89.02
84049;BME280;74136;51.684;7.862;2023-11-19T00:42:23;100258.59;;;9.46;89.22
84049;BME280;74136;51.684;7.862;2023-11-19T00:44:52;100254.78;;;9.47;89.12
84049;BME280;74136;51.684;7.862;2023-11-19T00:47:18;100246.88;;;9.50;88.88
84049;BME280;74136;51.684;7.862;2023-11-19T00:49:47;100243.91;;;9.52;89.00
84049;BME280;74136;51.684;7.862;2023-11-19T00:52:14;100233.75;;;9.53;88.77
84049;BME280;74136;51.684;7.862;2023-11-19T00:54:40;100225.50;;;9.53;89.03
84049;BME280;74136;51.684;7.862;2023-11-19T00:57:05;100231.13;;;9.58;89.06
84049;BME280;74136;51.684;7.862;2023-11-19T00:59:31;100231.47;;;9.61;88.99
84049;BME280;74136;51.684;7.862;2023-11-19T01:01:56;100224.66;;;9.64;88.62
84049;BME280;74136;51.684;7.862;2023-11-19T01:04:21;100216.44;;;9.64;88.78
84049;BME280;74136;51.684;7.862;2023-11-19T01:06:47;100222.75;;;9.64;88.42
84049;BME280;74136;51.684;7.862;2023-11-19T01:09:12;100226.94;;;9.67;88.24
84049;BME280;74136;51.684;7.862;2023-11-19T01:11:38;100213.56;;;9.70;89.00
84049;BME280;74136;51.684;7.862;2023-11-19T01:14:04;100217.16;;;9.71;88.56
84049;BME280;74136;51.684;7.862;2023-11-19T01:16:29;100202.34;;;9.72;88.61
84049;BME280;74136;51.684;7.862;2023-11-19T01:18:56;100207.94;;;9.77;88.47
84049;BME280;74136;51.684;7.862;2023-11-19T01:21:21;100213.19;;;9.78;88.28
84049;BME280;74136;51.684;7.862;2023-11-19T01:23:47;100220.75;;;9.83;88.40
84049;BME280;74136;51.684;7.862;2023-11-19T01:26:12;100219.91;;;9.82;88.66
84049;BME280;74136;51.684;7.862;2023-11-19T01:28:38;100213.06;;;9.85;88.75
84049;BME280;74136;51.684;7.862;2023-11-19T01:31:05;100210.69;;;9.89;88.49
84049;BME280;74136;51.684;7.862;2023-11-19T01:33:30;100198.59;;;9.90;88.94
84049;BME280;74136;51.684;7.862;2023-11-19T01:35:56;100201.44;;;9.95;88.79
84049;BME280;74136;51.684;7.862;2023-11-19T01:38:24;100201.22;;;9.96;88.57
84049;BME280;74136;51.684;7.862;2023-11-19T01:40:49;100211.72;;;9.99;88.71
84049;BME280;74136;51.684;7.862;2023-11-19T01:43:34;100208.00;;;10.05;88.67
84049;BME280;74136;51.684;7.862;2023-11-19T01:46:00;100200.94;;;10.09;89.04
84049;BME280;74136;51.684;7.862;2023-11-19T01:48:26;100201.91;;;10.15;88.97
84049;BME280;74136;51.684;7.862;2023-11-19T01:50:52;100187.88;;;10.16;89.15
84049;BME280;74136;51.684;7.862;2023-11-19T01:53:18;100164.81;;;10.17;89.36
84049;BME280;74136;51.684;7.862;2023-11-19T01:55:44;100167.13;;;10.20;88.86
84049;BME280;74136;51.684;7.862;2023-11-19T01:58:11;100172.13;;;10.24;89.18
84049;BME280;74136;51.684;7.862;2023-11-19T02:00:37;100160.66;;;10.27;89.47
84049;BME280;74136;51.684;7.862;2023-11-19T02:03:07;100162.66;;;10.31;89.32
84049;BME280;74136;51.684;7.862;2023-11-19T02:05:33;100157.03;;;10.38;89.28
84049;BME280;74136;51.684;7.862;2023-11-19T02:08:00;100161.75;;;10.42;89.33
84049;BME280;74136;51.684;7.862;2023-11-19T02:10:26;100143.94;;;10.45;89.29
84049;BME280;74136;51.684;7.862;2023-11-19T02:12:51;100128.94;;;10.52;89.58
84049;BME280;74136;51.684;7.862;2023-11-19T02:15:17;100133.47;;;10.58;89.68
84049;BME280;74136;51.684;7.862;2023-11-19T02:17:44;100138.72;;;10.60;89.13
84049;BME280;74136;51.684;7.862;2023-11-19T02:20:10;100132.72;;;10.63;89.53
84049;BME280;74136;51.684;7.862;2023-11-19T02:22:40;100131.13;;;10.67;89.21
84049;BME280;74136;51.684;7.862;2023-11-19T02:25:08;100133.13;;;10.72;89.16
84049;BME280;74136;51.684;7.862;2023-11-19T02:27:51;100132.16;;;10.78;89.23
84049;BME280;74136;51.684;7.862;2023-11-19T02:30:21;100136.09;;;10.82;89.20
84049;BME280;74136;51.684;7.862;2023-11-19T02:32:46;100124.31;;;10.86;89.45
84049;BME280;74136;51.684;7.862;2023-11-19T02:35:13;100120.47;;;10.87;89.36
84049;BME280;74136;51.684;7.862;2023-11-19T02:37:38;100114.22;;;10.92;89.30
84049;BME280;74136;51.684;7.862;2023-11-19T02:40:05;100136.06;;;10.99;89.26
84049;BME280;74136;51.684;7.862;2023-11-19T02:42:30;100131.75;;;11.03;89.29
84049;BME280;74136;51.684;7.862;2023-11-19T02:44:56;100126.56;;;11.06;89.05
84049;BME280;74136;51.684;7.862;2023-11-19T02:47:21;100122.47;;;11.09;88.84
84049;BME280;74136;51.684;7.862;2023-11-19T02:49:49;100106.78;;;11.09;88.72
84049;BME280;74136;51.684;7.862;2023-11-19T02:52:14;100112.63;;;11.13;88.65
84049;BME280;74136;51.684;7.862;2023-11-19T02:54:40;100105.44;;;11.12;88.83
84049;BME280;74136;51.684;7.862;2023-11-19T02:57:06;100114.59;;;11.17;88.53
84049;BME280;74136;51.684;7.862;2023-11-19T02:59:35;100104.19;;;11.19;88.29
84049;BME280;74136;51.684;7.862;2023-11-19T03:02:05;100094.84;;;11.20;88.33
84049;BME280;74136;51.684;7.862;2023-11-19T03:04:33;100096.75;;;11.20;88.23
84049;BME280;74136;51.684;7.862;2023-11-19T03:06:58;100094.91;;;11.25;88.05
84049;BME280;74136;51.684;7.862;2023-11-19T03:09:24;100093.84;;;11.26;88.17
84049;BME280;74136;51.684;7.862;2023-11-19T03:11:50;100091.88;;;11.27;87.81
84049;BME280;74136;51.684;7.862;2023-11-19T03:14:15;100089.72;;;11.29;87.87
84049;BME280;74136;51.684;7.862;2023-11-19T03:16:40;100082.13;;;11.36;86.99
84049;BME280;74136;51.684;7.862;2023-11-19T03:19:06;100086.84;;;11.41;87.00
84049;BME280;74136;51.684;7.862;2023-11-19T03:21:31;100090.78;;;11.45;86.85
84049;BME280;74136;51.684;7.862;2023-11-19T03:23:59;100095.22;;;11.46;86.98
84049;BME280;74136;51.684;7.862;2023-11-19T03:26:26;100082.75;;;11.43;86.96
84049;BME280;74136;51.684;7.862;2023-11-19T03:28:51;100077.84;;;11.45;86.39
84049;BME280;74136;51.684;7.862;2023-11-19T03:31:17;100076.41;;;11.43;86.67
84049;BME280;74136;51.684;7.862;2023-11-19T03:33:42;100070.06;;;11.42;86.23
84049;BME280;74136;51.684;7.862;2023-11-19T03:36:07;100078.59;;;11.41;86.13
84049;BME280;74136;51.684;7.862;2023-11-19T03:38:34;100066.81;;;11.45;86.34
84049;BME280;74136;51.684;7.862;2023-11-19T03:40:59;100062.44;;;11.49;86.00
84049;BME280;74136;51.684;7.862;2023-11-19T03:43:25;100056.69;;;11.51;85.97
84049;BME280;74136;51.684;7.862;2023-11-19T03:45:50;100060.81;;;11.48;86.03
84049;BME280;74136;51.684;7.862;2023-11-19T03:48:16;100063.81;;;11.47;85.90
84049;BME280;74136;51.684;7.862;2023-11-19T03:50:42;100089.50;;;11.52;85.88
84049;BME280;74136;51.684;7.862;2023-11-19T03:53:07;100089.25;;;11.54;85.98
84049;BME280;74136;51.684;7.862;2023-11-19T03:55:32;100083.72;;;11.54;85.85
84049;BME280;74136;51.684;7.862;2023-11-19T03:57:58;100087.31;;;11.54;85.62
84049;BME280;74136;51.684;7.862;2023-11-19T04:00:23;100098.44;;;11.59;85.54
84049;BME280;74136;51.684;7.862;2023-11-19T04:02:49;100078.59;;;11.62;85.57
84049;BME280;74136;51.684;7.862;2023-11-19T04:05:14;100083.09;;;11.68;85.28
84049;BME280;74136;51.684;7.862;2023-11-19T04:07:39;100088.38;;;11.70;84.63
84049;BME280;74136;51.684;7.862;2023-11-19T04:10:05;100077.59;;;11.68;84.87
84049;BME280;74136;51.684;7.862;2023-11-19T04:12:30;100082.84;;;11.70;84.76
84049;BME280;74136;51.684;7.862;2023-11-19T04:14:56;100087.38;;;11.76;84.83
84049;BME280;74136;51.684;7.862;2023-11-19T04:17:21;100076.56;;;11.75;84.66
84049;BME280;74136;51.684;7.862;2023-11-19T04:19:48;100087.00;;;11.73;84.89
84049;BME280;74136;51.684;7.862;2023-11-19T04:22:13;100087.59;;;11.75;84.50
84049;BME280;74136;51.684;7.862;2023-11-19T04:24:39;100094.19;;;11.74;84.46
84049;BME280;74136;51.684;7.862;2023-11-19T04:27:05;100091.97;;;11.71;84.07
84049;BME280;74136;51.684;7.862;2023-11-19T04:29:31;100094.44;;;11.72;83.57
84049;BME280;74136;51.684;7.862;2023-11-19T04:31:57;100091.38;;;11.68;83.10
84049;BME280;74136;51.684;7.862;2023-11-19T04:34:22;100085.53;;;11.65;83.16
84049;BME280;74136;51.684;7.862;2023-11-19T04:36:48;100069.22;;;11.58;83.13
84049;BME280;74136;51.684;7.862;2023-11-19T04:39:14;100095.09;;;11.57;83.04
84049;BME280;74136;51.684;7.862;2023-11-19T04:41:50;100085.78;;;11.63;82.49
84049;BME280;74136;51.684;7.862;2023-11-19T04:44:19;100087.22;;;11.66;81.97
84049;BME280;74136;51.684;7.862;2023-11-19T04:46:44;100089.13;;;11.65;81.38
84049;BME280;74136;51.684;7.862;2023-11-19T04:49:10;100077.78;;;11.62;81.38
84049;BME280;74136;51.684;7.862;2023-11-19T04:51:43;100074.19;;;11.61;81.36
84049;BME280;74136;51.684;7.862;2023-11-19T04:54:09;100080.41;;;11.52;81.36
84049;BME280;74136;51.684;7.862;2023-11-19T04:56:38;100079.44;;;11.41;81.76
84049;BME280;74136;51.684;7.862;2023-11-19T04:59:04;100082.69;;;11.38;81.69
84049;BME280;74136;51.684;7.862;2023-11-19T05:01:34;100094.22;;;11.35;81.77
84049;BME280;74136;51.684;7.862;2023-11-19T05:04:00;100082.69;;;11.38;81.19
84049;BME280;74136;51.684;7.862;2023-11-19T05:06:30;100088.53;;;11.42;80.37
84049;BME280;74136;51.684;7.862;2023-11-19T05:08:58;100091.13;;;11.48;79.81
84049;BME280;74136;51.684;7.862;2023-11-19T05:11:26;100099.09;;;11.50;80.17
84049;BME280;74136;51.684;7.862;2023-11-19T05:13:53;100097.97;;;11.46;80.34
84049;BME280;74136;51.684;7.862;2023-11-19T05:16:19;100108.59;;;11.37;80.54
84049;BME280;74136;51.684;7.862;2023-11-19T05:18:46;100120.00;;;11.46;80.57
84049;BME280;74136;51.684;7.862;2023-11-19T05:21:11;100113.06;;;11.43;80.74
84049;BME280;74136;51.684;7.862;2023-11-19T05:23:36;100111.41;;;11.42;81.08
84049;BME280;74136;51.684;7.862;2023-11-19T05:26:02;100116.91;;;11.42;81.18
84049;BME280;74136;51.684;7.862;2023-11-19T05:28:28;100105.00;;;11.37;81.03
84049;BME280;74136;51.684;7.862;2023-11-19T05:30:53;100114.34;;;11.36;81.09
84049;BME280;74136;51.684;7.862;2023-11-19T05:33:18;100116.66;;;11.44;81.02
84049;BME280;74136;51.684;7.862;2023-11-19T05:35:44;100121.72;;;11.52;80.20
84049;BME280;74136;51.684;7.862;2023-11-19T05:38:09;100122.66;;;11.57;79.79
84049;BME280;74136;51.684;7.862;2023-11-19T05:40:35;100116.31;;;11.57;79.86
84049;BME280;74136;51.684;7.862;2023-11-19T05:43:00;100121.47;;;11.53;79.95
84049;BME280;74136;51.684;7.862;2023-11-19T05:45:25;100114.09;;;11.37;80.06
84049;BME280;74136;51.684;7.862;2023-11-19T05:47:51;100120.16;;;11.39;79.41
84049;BME280;74136;51.684;7.862;2023-11-19T05:50:17;100117.59;;;11.32;79.50
84049;BME280;74136;51.684;7.862;2023-11-19T05:52:43;100130.78;;;11.30;79.60
84049;BME280;74136;51.684;7.862;2023-11-19T05:55:09;100127.59;;;11.39;78.79
84049;BME280;74136;51.684;7.862;2023-11-19T05:57:36;100127.13;;;11.25;79.50
84049;BME280;74136;51.684;7.862;2023-11-19T06:00:02;100129.56;;;11.21;79.15
84049;BME280;74136;51.684;7.862;2023-11-19T06:02:28;100125.63;;;11.17;79.86
84049;BME280;74136;51.684;7.862;2023-11-19T06:04:54;100122.03;;;11.17;79.70
84049;BME280;74136;51.684;7.862;2023-11-19T06:07:19;100120.06;;;11.12;79.84
84049;BME280;74136;51.684;7.862;2023-11-19T06:09:45;100119.72;;;11.09;80.12
84049;BME280;74136;51.684;7.862;2023-11-19T06:12:10;100122.97;;;11.06;80.37
84049;BME280;74136;51.684;7.862;2023-11-19T06:14:35;100126.06;;;11.09;79.40
84049;BME280;74136;51.684;7.862;2023-11-19T06:17:01;100120.13;;;11.17;79.42
84049;BME280;74136;51.684;7.862;2023-11-19T06:19:26;100127.03;;;11.20;79.35
84049;BME280;74136;51.684;7.862;2023-11-19T06:21:52;100119.88;;;11.19;79.58
84049;BME280;74136;51.684;7.862;2023-11-19T06:24:17;100124.03;;;11.21;79.43
84049;BME280;74136;51.684;7.862;2023-11-19T06:26:43;100126.88;;;11.26;78.92
84049;BME280;74136;51.684;7.862;2023-11-19T06:29:08;100132.97;;;11.28;78.77
84049;BME280;74136;51.684;7.862;2023-11-19T06:31:33;100125.78;;;11.27;78.72
84049;BME280;74136;51.684;7.862;2023-11-19T06:33:59;100124.28;;;11.20;78.48
84049;BME280;74136;51.684;7.862;2023-11-19T06:36:24;100134.91;;;11.11;79.08
84049;BME280;74136;51.684;7.862;2023-11-19T06:38:50;100140.50;;;11.00;78.68
84049;BME280;74136;51.684;7.862;2023-11-19T06:41:15;100139.25;;;10.90;78.27
84049;BME280;74136;51.684;7.862;2023-11-19T06:43:40;100153.19;;;11.01;77.46
84049;BME280;74136;51.684;7.862;2023-11-19T06:46:06;100151.69;;;10.93;77.57
84049;BME280;74136;51.684;7.862;2023-11-19T06:48:39;100141.69;;;11.04;76.48
84049;BME280;74136;51.684;7.862;2023-11-19T06:51:04;100141.69;;;11.04;76.82
84049;BME280;74136;51.684;7.862;2023-11-19T06:53:30;100145.50;;;11.03;77.31
84049;BME280;74136;51.684;7.862;2023-11-19T06:55:55;100140.50;;;11.00;77.27
84049;BME280;74136;51.684;7.862;2023-11-19T06:58:22;100153.34;;;11.11;77.17
84049;BME280;74136;51.684;7.862;2023-11-19T07:00:47;100154.53;;;11.15;76.85
84049;BME280;74136;51.684;7.862;2023-11-19T07:03:14;100168.28;;;11.15;77.14
84049;BME280;74136;51.684;7.862;2023-11-19T07:05:41;100168.78;;;11.12;76.97
84049;BME280;74136;51.684;7.862;2023-11-19T07:08:06;100169.53;;;11.24;76.27
84049;BME280;74136;51.684;7.862;2023-11-19T07:10:34;100164.78;;;11.19;77.26
84049;BME280;74136;51.684;7.862;2023-11-19T07:12:59;100182.31;;;11.13;77.62
84049;BME280;74136;51.684;7.862;2023-11-19T07:15:25;100181.53;;;11.18;77.63
84049;BME280;74136;51.684;7.862;2023-11-19T07:17:50;100174.47;;;11.22;77.18
84049;BME280;74136;51.684;7.862;2023-11-19T07:20:16;100183.38;;;11.29;76.77
84049;BME280;74136;51.684;7.862;2023-11-19T07:22:44;100175.78;;;11.36;75.99
84049;BME280;74136;51.684;7.862;2023-11-19T07:25:14;100157.34;;;11.37;76.30
84049;BME280;74136;51.684;7.862;2023-11-19T07:27:39;100179.38;;;11.37;75.92
84049;BME280;74136;51.684;7.862;2023-11-19T07:30:06;100174.97;;;11.36;76.35
84049;BME280;74136;51.684;7.862;2023-11-19T07:32:34;100187.38;;;11.38;75.64
84049;BME280;74136;51.684;7.862;2023-11-19T07:35:00;100189.13;;;11.44;76.02
84049;BME280;74136;51.684;7.862;2023-11-19T07:37:25;100176.19;;;11.45;75.96
84049;BME280;74136;51.684;7.862;2023-11-19T07:39:51;100193.47;;;11.40;75.63
84049;BME280;74136;51.684;7.862;2023-11-19T07:42:16;100178.34;;;11.43;75.83
84049;BME280;74136;51.684;7.862;2023-11-19T07:44:43;100183.53;;;11.39;76.19
84049;BME280;74136;51.684;7.862;2023-11-19T07:47:08;100182.63;;;11.34;76.02
84049;BME280;74136;51.684;7.862;2023-11-19T07:49:34;100179.28;;;11.31;75.56
84049;BME280;74136;51.684;7.862;2023-11-19T07:51:59;100187.22;;;11.28;75.57
84049;BME280;74136;51.684;7.862;2023-11-19T07:54:25;100196.56;;;11.27;75.22
84049;BME280;74136;51.684;7.862;2023-11-19T07:56:50;100200.91;;;11.23;76.31
84049;BME280;74136;51.684;7.862;2023-11-19T07:59:16;100208.84;;;11.19;76.34
84049;BME280;74136;51.684;7.862;2023-11-19T08:01:41;100208.94;;;11.24;75.94
84049;BME280;74136;51.684;7.862;2023-11-19T08:04:06;100216.00;;;11.20;76.42
84049;BME280;74136;51.684;7.862;2023-11-19T08:06:32;100203.91;;;11.21;75.52
84049;BME280;74136;51.684;7.862;2023-11-19T08:08:57;100205.09;;;11.25;75.78
84049;BME280;74136;51.684;7.862;2023-11-19T08:11:23;100210.91;;;11.29;76.20
84049;BME280;74136;51.684;7.862;2023-11-19T08:13:49;100220.19;;;11.40;75.53
84049;BME280;74136;51.684;7.862;2023-11-19T08:16:14;100223.53;;;11.42;75.31
84049;BME280;74136;51.684;7.862;2023-11-19T08:18:42;100223.44;;;11.53;75.05
84049;BME280;74136;51.684;7.862;2023-11-19T08:21:08;100230.44;;;11.61;75.01
84049;BME280;74136;51.684;7.862;2023-11-19T08:23:33;100223.59;;;11.63;74.13
84049;BME280;74136;51.684;7.862;2023-11-19T08:25:59;100228.59;;;11.66;73.93
84049;BME280;74136;51.684;7.862;2023-11-19T08:28:25;100237.78;;;11.72;73.68
84049;BME280;74136;51.684;7.862;2023-11-19T08:30:50;100230.91;;;11.75;73.17
84049;BME280;74136;51.684;7.862;2023-11-19T08:33:15;100229.38;;;11.79;73.17
84049;BME280;74136;51.684;7.862;2023-11-19T08:35:41;100239.81;;;11.77;73.28
84049;BME280;74136;51.684;7.862;2023-11-19T08:38:07;100231.28;;;11.78;73.33
84049;BME280;74136;51.684;7.862;2023-11-19T08:40:32;100235.28;;;11.71;72.82
84049;BME280;74136;51.684;7.862;2023-11-19T08:42:57;100249.63;;;11.73;74.20
84049;BME280;74136;51.684;7.862;2023-11-19T08:45:23;100242.38;;;11.66;72.93
84049;BME280;74136;51.684;7.862;2023-11-19T08:47:48;100251.75;;;11.65;73.55
84049;BME280;74136;51.684;7.862;2023-11-19T08:50:14;100237.63;;;11.62;73.55
84049;BME280;74136;51.684;7.862;2023-11-19T08:52:39;100227.69;;;11.61;74.38
84049;BME280;74136;51.684;7.862;2023-11-19T08:55:05;100237.56;;;11.57;74.19
84049;BME280;74136;51.684;7.862;2023-11-19T08:57:33;100249.16;;;11.59;73.24
84049;BME280;74136;51.684;7.862;2023-11-19T08:59:59;100246.31;;;11.54;73.68
84049;BME280;74136;51.684;7.862;2023-11-19T09:02:25;100247.16;;;11.54;73.54
84049;BME280;74136;51.684;7.862;2023-11-19T09:04:50;100231.94;;;11.52;73.60
84049;BME280;74136;51.684;7.862;2023-11-19T09:07:16;100247.66;;;11.51;74.07
84049;BME280;74136;51.684;7.862;2023-11-19T09:09:42;100250.66;;;11.50;73.54
84049;BME280;74136;51.684;7.862;2023-11-19T09:12:07;100252.31;;;11.51;74.29
84049;BME280;74136;51.684;7.862;2023-11-19T09:14:32;100258.66;;;11.51;74.29
84049;BME280;74136;51.684;7.862;2023-11-19T09:16:58;100255.41;;;11.54;74.32
84049;BME280;74136;51.684;7.862;2023-11-19T09:19:24;100258.28;;;11.59;73.81
84049;BME280;74136;51.684;7.862;2023-11-19T09:21:49;100260.84;;;11.66;73.15
84049;BME280;74136;51.684;7.862;2023-11-19T09:24:15;100249.81;;;11.66;73.30
84049;BME280;74136;51.684;7.862;2023-11-19T09:26:40;100254.00;;;11.68;72.77
84049;BME280;74136;51.684;7.862;2023-11-19T09:29:09;100252.13;;;11.74;73.01
84049;BME280;74136;51.684;7.862;2023-11-19T09:31:34;100250.84;;;11.77;73.36
84049;BME280;74136;51.684;7.862;2023-11-19T09:34:00;100252.91;;;11.86;72.52
84049;BME280;74136;51.684;7.862;2023-11-19T09:36:26;100259.75;;;12.00;72.19
84049;BME280;74136;51.684;7.862;2023-11-19T09:38:51;100257.63;;;12.08;71.30
84049;BME280;74136;51.684;7.862;2023-11-19T09:41:16;100258.34;;;12.20;71.85
84049;BME280;74136;51.684;7.862;2023-11-19T09:43:45;100253.66;;;12.20;70.94
84049;BME280;74136;51.684;7.862;2023-11-19T09:46:11;100247.66;;;12.23;71.37
84049;BME280;74136;51.684;7.862;2023-11-19T09:48:38;100251.03;;;12.30;71.93
84049;BME280;74136;51.684;7.862;2023-11-19T09:51:07;100259.44;;;12.19;71.20
84049;BME280;74136;51.684;7.862;2023-11-19T09:53:34;100259.44;;;12.19;71.05
84049;BME280;74136;51.684;7.862;2023-11-19T09:56:01;100261.94;;;12.20;72.33
84049;BME280;74136;51.684;7.862;2023-11-19T09:58:29;100257.75;;;12.18;70.92
84049;BME280;74136;51.684;7.862;2023-11-19T10:00:54;100251.25;;;12.24;71.43
84049;BME280;74136;51.684;7.862;2023-11-19T10:03:21;100246.34;;;12.31;71.07
84049;BME280;74136;51.684;7.862;2023-11-19T10:05:48;100234.03;;;12.38;70.69
84049;BME280;74136;51.684;7.862;2023-11-19T10:08:13;100239.03;;;12.42;71.18
84049;BME280;74136;51.684;7.862;2023-11-19T10:10:39;100241.16;;;12.34;70.73
84049;BME280;74136;51.684;7.862;2023-11-19T10:13:04;100238.91;;;12.31;70.60
84049;BME280;74136;51.684;7.862;2023-11-19T10:15:35;100237.19;;;12.25;71.37
84049;BME280;74136;51.684;7.862;2023-11-19T10:18:01;100239.28;;;12.18;70.89
84049;BME280;74136;51.684;7.862;2023-11-19T10:20:26;100244.75;;;12.13;71.50
84049;BME280;74136;51.684;7.862;2023-11-19T10:22:55;100247.75;;;12.12;70.78
84049;BME280;74136;51.684;7.862;2023-11-19T10:25:24;100245.00;;;12.12;70.62
84049;BME280;74136;51.684;7.862;2023-11-19T10:27:56;100242.56;;;12.15;71.89
84049;BME280;74136;51.684;7.862;2023-11-19T10:30:26;100240.63;;;12.16;71.62
84049;BME280;74136;51.684;7.862;2023-11-19T10:35:36;100244.22;;;12.16;70.85
84049;BME280;74136;51.684;7.862;2023-11-19T10:38:13;100231.78;;;12.14;70.91
84049;BME280;74136;51.684;7.862;2023-11-19T10:40:41;100231.25;;;12.17;70.15
84049;BME280;74136;51.684;7.862;2023-11-19T10:43:07;100222.44;;;12.15;70.04
84049;BME280;74136;51.684;7.862;2023-11-19T10:45:33;100226.41;;;12.24;70.86
84049;BME280;74136;51.684;7.862;2023-11-19T10:47:59;100222.28;;;12.26;70.60
84049;BME280;74136;51.684;7.862;2023-11-19T10:50:25;100225.56;;;12.23;70.65
84049;BME280;74136;51.684;7.862;2023-11-19T10:52:55;100224.28;;;12.09;71.79
84049;BME280;74136;51.684;7.862;2023-11-19T10:55:28;100224.97;;;11.99;72.42
84049;BME280;74136;51.684;7.862;2023-11-19T10:58:05;100220.91;;;11.85;72.82
84049;BME280;74136;51.684;7.862;2023-11-19T11:03:15;100216.22;;;11.86;72.67
84049;BME280;74136;51.684;7.862;2023-11-19T11:05:42;100219.81;;;11.86;72.64
84049;BME280;74136;51.684;7.862;2023-11-19T11:08:08;100216.72;;;11.83;72.14
84049;BME280;74136;51.684;7.862;2023-11-19T11:10:49;100238.97;;;11.76;74.73
84049;BME280;74136;51.684;7.862;2023-11-19T11:13:22;100217.34;;;11.51;74.85
84049;BME280;74136;51.684;7.862;2023-11-19T11:15:49;100227.72;;;11.44;76.15
84049;BME280;74136;51.684;7.862;2023-11-19T11:18:16;100221.78;;;11.36;75.35
84049;BME280;74136;51.684;7.862;2023-11-19T11:20:45;100228.88;;;11.31;75.87
84049;BME280;74136;51.684;7.862;2023-11-19T11:26:05;100216.28;;;11.36;76.65
84049;BME280;74136;51.684;7.862;2023-11-19T11:28:41;100221.00;;;11.40;76.11
84049;BME280;74136;51.684;7.862;2023-11-19T11:34:24;100220.63;;;11.48;74.55
84049;BME280;74136;51.684;7.862;2023-11-19T11:37:06;100225.44;;;11.58;75.22
84049;BME280;74136;51.684;7.862;2023-11-19T11:39:36;100221.41;;;11.65;74.65
84049;BME280;74136;51.684;7.862;2023-11-19T11:50:09;100224.09;;;11.77;73.10
84049;BME280;74136;51.684;7.862;2023-11-19T11:55:37;100224.50;;;11.69;73.08
84049;BME280;74136;51.684;7.862;2023-11-19T11:58:07;100211.41;;;11.59;73.30
84049;BME280;74136;51.684;7.862;2023-11-19T12:00:37;100219.34;;;11.56;73.62
84049;BME280;74136;51.684;7.862;2023-11-19T12:03:06;100205.41;;;11.46;75.00
84049;BME280;74136;51.684;7.862;2023-11-19T12:05:33;100208.91;;;11.41;76.03
84049;BME280;74136;51.684;7.862;2023-11-19T12:08:03;100211.41;;;11.43;76.02
84049;BME280;74136;51.684;7.862;2023-11-19T12:10:30;100208.59;;;11.38;75.70
84049;BME280;74136;51.684;7.862;2023-11-19T12:13:04;100209.00;;;11.46;76.49
84049;BME280;74136;51.684;7.862;2023-11-19T12:15:31;100202.97;;;11.49;76.64
84049;BME280;74136;51.684;7.862;2023-11-19T12:17:56;100193.22;;;11.58;76.90
84049;BME280;74136;51.684;7.862;2023-11-19T12:20:26;100193.41;;;11.74;77.13
84049;BME280;74136;51.684;7.862;2023-11-19T12:22:54;100188.41;;;11.87;75.89
84049;BME280;74136;51.684;7.862;2023-11-19T12:25:20;100196.31;;;12.00;76.25
84049;BME280;74136;51.684;7.862;2023-11-19T12:27:56;100185.06;;;12.07;75.30
84049;BME280;74136;51.684;7.862;2023-11-19T12:30:27;100178.81;;;12.12;72.75
84049;BME280;74136;51.684;7.862;2023-11-19T12:32:54;100188.22;;;12.16;72.84
84049;BME280;74136;51.684;7.862;2023-11-19T12:35:20;100189.19;;;12.04;72.85
84049;BME280;74136;51.684;7.862;2023-11-19T12:37:49;100181.94;;;11.98;73.69
84049;BME280;74136;51.684;7.862;2023-11-19T12:40:20;100183.63;;;11.99;73.55
84049;BME280;74136;51.684;7.862;2023-11-19T12:42:49;100176.75;;;12.02;74.10
84049;BME280;74136;51.684;7.862;2023-11-19T12:45:15;100180.06;;;12.04;72.87
84049;BME280;74136;51.684;7.862;2023-11-19T12:47:43;100170.56;;;12.17;72.75
84049;BME280;74136;51.684;7.862;2023-11-19T12:50:09;100170.44;;;12.28;72.13
84049;BME280;74136;51.684;7.862;2023-11-19T12:52:38;100171.34;;;12.34;72.22
84049;BME280;74136;51.684;7.862;2023-11-19T12:55:05;100156.97;;;12.32;71.29
84049;BME280;74136;51.684;7.862;2023-11-19T12:57:40;100168.00;;;12.32;70.63
84049;BME280;74136;51.684;7.862;2023-11-19T13:00:07;100163.69;;;12.41;69.66
84049;BME280;74136;51.684;7.862;2023-11-19T13:02:50;100156.84;;;12.44;69.57
84049;BME280;74136;51.684;7.862;2023-11-19T13:05:23;100157.09;;;12.42;69.01
84049;BME280;74136;51.684;7.862;2023-11-19T13:07:48;100153.16;;;12.38;69.15
84049;BME280;74136;51.684;7.862;2023-11-19T13:10:13;100152.88;;;12.34;70.25